QTR1190 OTHH-OEJN
Flight info
| Callsign | QTR1190 |
|---|---|
| Flight time | N/A |
| Altitude | 34000 |
| Route | DATRI L564 BAT/N0487F290 L564 MIGMA/N0472F280 M550 MEVDO Y511 ITRUX/N0487F380 Y511 ASMIS T218 IMGUT M309 VEMEM |
| Aircraft | B77W/H-SDE1E2E3FGHIJ2J3J4J5M1RWXY/LB1D1 |
Departure
| Time | N/A |
|---|---|
| Airport | Hamad International Airport (OTHH) |
Arrival
| Time | 2026-04-30 12:00 |
|---|---|
| Airport | King Abdulaziz International Airport (OEJN) |
| Time | Latitude | Longitude | Altitude | Speed | Heading |
|---|---|---|---|---|---|
| 2026-04-30 11:21 | 22.81577 | 42.17771 | 34010 ft | 432 kts | 265° |
| 2026-04-30 11:22 | 22.81196 | 42.11283 | 34007 ft | 431 kts | 265° |
| 2026-04-30 11:22 | 22.80816 | 42.04853 | 34001 ft | 430 kts | 265° |
| 2026-04-30 11:23 | 22.80432 | 41.98386 | 34017 ft | 430 kts | 265° |
| 2026-04-30 11:24 | 22.79846 | 41.88655 | 34010 ft | 431 kts | 264° |
| 2026-04-30 11:24 | 22.79212 | 41.82192 | 34004 ft | 431 kts | 259° |
| 2026-04-30 11:25 | 22.76792 | 41.72817 | 34022 ft | 431 kts | 253° |
| 2026-04-30 11:26 | 22.73204 | 41.60483 | 34012 ft | 430 kts | 253° |
| 2026-04-30 11:26 | 22.71414 | 41.54299 | 34017 ft | 430 kts | 253° |
| 2026-04-30 11:27 | 22.69623 | 41.48118 | 34018 ft | 430 kts | 253° |
| 2026-04-30 11:27 | 22.67830 | 41.41943 | 34016 ft | 430 kts | 253° |
| 2026-04-30 11:28 | 22.65137 | 41.32686 | 34025 ft | 430 kts | 253° |
| 2026-04-30 11:29 | 22.63338 | 41.26515 | 34020 ft | 429 kts | 253° |
| 2026-04-30 11:29 | 22.60639 | 41.17273 | 33983 ft | 429 kts | 253° |
| 2026-04-30 11:30 | 22.57946 | 41.08075 | 34017 ft | 430 kts | 253° |
| 2026-04-30 11:31 | 22.56134 | 41.01899 | 34013 ft | 431 kts | 253° |
| 2026-04-30 11:31 | 22.54319 | 40.95721 | 34013 ft | 431 kts | 253° |
| 2026-04-30 11:32 | 22.52499 | 40.89537 | 34023 ft | 431 kts | 253° |
| 2026-04-30 11:32 | 22.50678 | 40.83359 | 34016 ft | 431 kts | 253° |
| 2026-04-30 11:33 | 22.47944 | 40.74100 | 34014 ft | 431 kts | 253° |
| 2026-04-30 11:33 | 22.46117 | 40.67925 | 34026 ft | 431 kts | 253° |
| 2026-04-30 11:34 | 22.44294 | 40.61773 | 33907 ft | 428 kts | 253° |
| 2026-04-30 11:34 | 22.43386 | 40.58711 | 33614 ft | 428 kts | 253° |
| 2026-04-30 11:34 | 22.42478 | 40.55653 | 33336 ft | 428 kts | 253° |
| 2026-04-30 11:35 | 22.41567 | 40.52588 | 33101 ft | 426 kts | 253° |
| 2026-04-30 11:35 | 22.40663 | 40.49546 | 32914 ft | 425 kts | 253° |
| 2026-04-30 11:35 | 22.39761 | 40.46516 | 32733 ft | 422 kts | 253° |
| 2026-04-30 11:35 | 22.38864 | 40.43504 | 32591 ft | 420 kts | 253° |
| 2026-04-30 11:36 | 22.37970 | 40.40502 | 32039 ft | 420 kts | 253° |
| 2026-04-30 11:36 | 22.37077 | 40.37507 | 31482 ft | 417 kts | 253° |
| 2026-04-30 11:36 | 22.36201 | 40.34574 | 30896 ft | 414 kts | 253° |
| 2026-04-30 11:36 | 22.35318 | 40.31620 | 30323 ft | 412 kts | 253° |
| 2026-04-30 11:37 | 22.34441 | 40.28683 | 29660 ft | 410 kts | 253° |
| 2026-04-30 11:37 | 22.33566 | 40.25757 | 29007 ft | 407 kts | 253° |
| 2026-04-30 11:37 | 22.32701 | 40.22863 | 28410 ft | 403 kts | 253° |
| 2026-04-30 11:37 | 22.31841 | 40.19992 | 27817 ft | 400 kts | 253° |
| 2026-04-30 11:38 | 22.30987 | 40.17146 | 27258 ft | 397 kts | 253° |
| 2026-04-30 11:38 | 22.30140 | 40.14320 | 26710 ft | 395 kts | 253° |
| 2026-04-30 11:38 | 22.29293 | 40.11501 | 26221 ft | 394 kts | 252° |
| 2026-04-30 11:38 | 22.28448 | 40.08686 | 25910 ft | 393 kts | 252° |
| 2026-04-30 11:39 | 22.27607 | 40.05886 | 25625 ft | 390 kts | 252° |
| 2026-04-30 11:39 | 22.26768 | 40.03111 | 25156 ft | 388 kts | 251° |
| 2026-04-30 11:39 | 22.25634 | 40.00479 | 24621 ft | 388 kts | 239° |
| 2026-04-30 11:39 | 22.24089 | 39.98100 | 24129 ft | 386 kts | 236° |
| 2026-04-30 11:40 | 22.22562 | 39.95728 | 23639 ft | 384 kts | 237° |
| 2026-04-30 11:40 | 22.21038 | 39.93372 | 22966 ft | 381 kts | 231° |
| 2026-04-30 11:40 | 22.19017 | 39.91507 | 22287 ft | 387 kts | 212° |
| 2026-04-30 11:40 | 22.16527 | 39.90414 | 21839 ft | 389 kts | 197° |
| 2026-04-30 11:41 | 22.13844 | 39.90082 | 21474 ft | 389 kts | 184° |
| 2026-04-30 11:41 | 22.11156 | 39.90417 | 21224 ft | 390 kts | 168° |
| 2026-04-30 11:41 | 22.08635 | 39.91556 | 20983 ft | 397 kts | 158° |
| 2026-04-30 11:41 | 22.06131 | 39.92715 | 20740 ft | 397 kts | 169° |
| 2026-04-30 11:42 | 22.03455 | 39.93330 | 20516 ft | 389 kts | 174° |
| 2026-04-30 11:42 | 22.00811 | 39.93834 | 20271 ft | 382 kts | 174° |
| 2026-04-30 11:42 | 21.98231 | 39.94319 | 20022 ft | 370 kts | 179° |
| 2026-04-30 11:42 | 21.95712 | 39.94315 | 19756 ft | 353 kts | 194° |
| 2026-04-30 11:43 | 21.93454 | 39.93423 | 19496 ft | 344 kts | 215° |
| 2026-04-30 11:43 | 21.91644 | 39.91775 | 19287 ft | 341 kts | 231° |
| 2026-04-30 11:43 | 21.90356 | 39.89650 | 19058 ft | 339 kts | 246° |
| 2026-04-30 11:43 | 21.89582 | 39.87254 | 18847 ft | 340 kts | 258° |
| 2026-04-30 11:44 | 21.89512 | 39.84733 | 18583 ft | 337 kts | 276° |
| 2026-04-30 11:44 | 21.89865 | 39.82234 | 18391 ft | 338 kts | 277° |
| 2026-04-30 11:44 | 21.90235 | 39.79731 | 18152 ft | 339 kts | 277° |
| 2026-04-30 11:44 | 21.90599 | 39.77231 | 17905 ft | 337 kts | 276° |
| 2026-04-30 11:45 | 21.90580 | 39.74756 | 17513 ft | 331 kts | 255° |
| 2026-04-30 11:45 | 21.89646 | 39.72509 | 17063 ft | 331 kts | 239° |
| 2026-04-30 11:45 | 21.88212 | 39.70553 | 16489 ft | 334 kts | 229° |
| 2026-04-30 11:45 | 21.86617 | 39.68764 | 15916 ft | 338 kts | 227° |
| 2026-04-30 11:46 | 21.84954 | 39.66978 | 15423 ft | 337 kts | 227° |
| 2026-04-30 11:46 | 21.83305 | 39.65220 | 14951 ft | 329 kts | 227° |
| 2026-04-30 11:46 | 21.81669 | 39.63466 | 14374 ft | 333 kts | 227° |
| 2026-04-30 11:46 | 21.80029 | 39.61695 | 13858 ft | 335 kts | 227° |
| 2026-04-30 11:47 | 21.78388 | 39.59915 | 13247 ft | 333 kts | 227° |
| 2026-04-30 11:47 | 21.76768 | 39.58152 | 12386 ft | 331 kts | 227° |
| 2026-04-30 11:47 | 21.75150 | 39.56386 | 11480 ft | 331 kts | 227° |
| 2026-04-30 11:47 | 21.73556 | 39.54647 | 10984 ft | 319 kts | 227° |
| 2026-04-30 11:48 | 21.72039 | 39.52992 | 10710 ft | 302 kts | 227° |
| 2026-04-30 11:48 | 21.70600 | 39.51420 | 10393 ft | 288 kts | 227° |
| 2026-04-30 11:48 | 21.69214 | 39.49906 | 9969 ft | 280 kts | 227° |
| 2026-04-30 11:48 | 21.67857 | 39.48422 | 9392 ft | 278 kts | 227° |
| 2026-04-30 11:49 | 21.66498 | 39.46937 | 8798 ft | 277 kts | 226° |
| 2026-04-30 11:49 | 21.65158 | 39.45475 | 8298 ft | 272 kts | 226° |
| 2026-04-30 11:49 | 21.63850 | 39.44045 | 7758 ft | 270 kts | 227° |
| 2026-04-30 11:49 | 21.62536 | 39.42610 | 7265 ft | 267 kts | 227° |
| 2026-04-30 11:50 | 21.61236 | 39.41190 | 6799 ft | 270 kts | 226° |
| 2026-04-30 11:50 | 21.59915 | 39.39748 | 6459 ft | 272 kts | 226° |
| 2026-04-30 11:50 | 21.58594 | 39.38305 | 6064 ft | 269 kts | 226° |
| 2026-04-30 11:50 | 21.57278 | 39.36872 | 5530 ft | 268 kts | 227° |
| 2026-04-30 11:51 | 21.55960 | 39.35439 | 4965 ft | 272 kts | 226° |
| 2026-04-30 11:51 | 21.54576 | 39.34099 | 4726 ft | 264 kts | 212° |
| 2026-04-30 11:51 | 21.52840 | 39.33533 | 4531 ft | 262 kts | 182° |
| 2026-04-30 11:51 | 21.51093 | 39.33810 | 4499 ft | 249 kts | 162° |
| 2026-04-30 11:52 | 21.49498 | 39.34441 | 4412 ft | 240 kts | 160° |
| 2026-04-30 11:52 | 21.47965 | 39.35051 | 4379 ft | 232 kts | 161° |
| 2026-04-30 11:52 | 21.46444 | 39.35579 | 4231 ft | 226 kts | 175° |
| 2026-04-30 11:52 | 21.44951 | 39.35348 | 4173 ft | 214 kts | 209° |
| 2026-04-30 11:53 | 21.43896 | 39.34305 | 3969 ft | 205 kts | 243° |
| 2026-04-30 11:53 | 21.43337 | 39.32921 | 3763 ft | 200 kts | 255° |
| 2026-04-30 11:53 | 21.43204 | 39.31489 | 3524 ft | 191 kts | 288° |
| 2026-04-30 11:53 | 21.43867 | 39.30307 | 3412 ft | 186 kts | 313° |
| 2026-04-30 11:54 | 21.44762 | 39.29270 | 3343 ft | 193 kts | 313° |
| 2026-04-30 11:54 | 21.45673 | 39.28205 | 3201 ft | 196 kts | 313° |
| 2026-04-30 11:54 | 21.46594 | 39.27128 | 3103 ft | 196 kts | 313° |
| 2026-04-30 11:54 | 21.47507 | 39.26075 | 3056 ft | 189 kts | 319° |
| 2026-04-30 11:55 | 21.48613 | 39.25378 | 3051 ft | 184 kts | 334° |
| 2026-04-30 11:55 | 21.49779 | 39.24791 | 3006 ft | 184 kts | 336° |
| 2026-04-30 11:55 | 21.50963 | 39.24268 | 3004 ft | 191 kts | 338° |
| 2026-04-30 11:55 | 21.52201 | 39.23764 | 2966 ft | 189 kts | 338° |
| 2026-04-30 11:56 | 21.53446 | 39.23268 | 2706 ft | 190 kts | 339° |
| 2026-04-30 11:56 | 21.54667 | 39.22786 | 2485 ft | 180 kts | 339° |
| 2026-04-30 11:56 | 21.55786 | 39.22344 | 2262 ft | 163 kts | 339° |
| 2026-04-30 11:56 | 21.56808 | 39.21940 | 2060 ft | 152 kts | 338° |
| 2026-04-30 11:57 | 21.57762 | 39.21563 | 1870 ft | 140 kts | 339° |
| 2026-04-30 11:57 | 21.58654 | 39.21214 | 1700 ft | 133 kts | 337° |
| 2026-04-30 11:57 | 21.59522 | 39.20870 | 1515 ft | 135 kts | 337° |
| 2026-04-30 11:57 | 21.60415 | 39.20516 | 1342 ft | 138 kts | 336° |
| 2026-04-30 11:58 | 21.61322 | 39.20156 | 1170 ft | 140 kts | 336° |
| 2026-04-30 11:58 | 21.62247 | 39.19792 | 982 ft | 142 kts | 338° |
| 2026-04-30 11:58 | 21.63164 | 39.19428 | 766 ft | 138 kts | 338° |
| 2026-04-30 11:58 | 21.64064 | 39.19072 | 626 ft | 140 kts | 337° |
| 2026-04-30 11:59 | 21.64989 | 39.18706 | 481 ft | 140 kts | 335° |
| 2026-04-30 11:59 | 21.65888 | 39.18354 | 295 ft | 136 kts | 335° |
| 2026-04-30 11:59 | 21.66782 | 39.18001 | 83 ft | 139 kts | 335° |
| 2026-04-30 11:59 | 21.67636 | 39.17658 | 39 ft | 116 kts | 340° |
| 2026-04-30 12:00 | 21.68217 | 39.17432 | 33 ft | 62 kts | 340° |
| 2026-04-30 12:00 | 21.68497 | 39.17320 | 31 ft | 36 kts | 340° |
| 2026-04-30 12:00 | 21.68691 | 39.17243 | 31 ft | 20 kts | 340° |
| 2026-04-30 12:00 | 21.68806 | 39.17171 | 32 ft | 16 kts | 317° |
| 2026-04-30 12:01 | 21.68865 | 39.17100 | 34 ft | 12 kts | 310° |
| 2026-04-30 12:01 | 21.68906 | 39.17048 | 35 ft | 6 kts | 309° |
| 2026-04-30 12:01 | 21.68926 | 39.17022 | 35 ft | 4 kts | 309° |
| 2026-04-30 12:01 | 21.68943 | 39.16999 | 34 ft | 4 kts | 309° |
| 2026-04-30 12:02 | 21.68959 | 39.16977 | 34 ft | 3 kts | 309° |
| 2026-04-30 12:02 | 21.68972 | 39.16956 | 34 ft | 3 kts | 289° |
| 2026-04-30 12:02 | 21.68957 | 39.16927 | 35 ft | 8 kts | 218° |
| 2026-04-30 12:02 | 21.68921 | 39.16919 | 35 ft | 8 kts | 177° |
| 2026-04-30 12:03 | 21.68864 | 39.16939 | 36 ft | 5 kts | 159° |
| 2026-04-30 12:03 | 21.68805 | 39.16963 | 36 ft | 6 kts | 159° |
| 2026-04-30 12:03 | 21.68761 | 39.16980 | 36 ft | 8 kts | 160° |
| 2026-04-30 12:04 | 21.68690 | 39.17008 | 34 ft | 13 kts | 160° |
| 2026-04-30 12:04 | 21.68597 | 39.17044 | 32 ft | 15 kts | 160° |
| 2026-04-30 12:04 | 21.68528 | 39.17053 | 32 ft | 9 kts | 202° |
| 2026-04-30 12:04 | 21.68479 | 39.17010 | 33 ft | 9 kts | 201° |
| 2026-04-30 12:05 | 21.68413 | 39.17018 | 34 ft | 11 kts | 161° |
| 2026-04-30 12:05 | 21.68318 | 39.17053 | 35 ft | 18 kts | 161° |
| 2026-04-30 12:05 | 21.68203 | 39.17099 | 34 ft | 17 kts | 159° |
| 2026-04-30 12:05 | 21.68130 | 39.17129 | 35 ft | 10 kts | 159° |
| 2026-04-30 12:06 | 21.68067 | 39.17154 | 35 ft | 8 kts | 160° |
| 2026-04-30 12:06 | 21.68010 | 39.17175 | 35 ft | 8 kts | 164° |
| 2026-04-30 12:06 | 21.67964 | 39.17148 | 35 ft | 8 kts | 242° |
| 2026-04-30 12:06 | 21.67944 | 39.17092 | 35 ft | 8 kts | 249° |
| 2026-04-30 12:07 | 21.67909 | 39.17048 | 35 ft | 8 kts | 201° |
| 2026-04-30 12:07 | 21.67854 | 39.17055 | 35 ft | 8 kts | 161° |
| 2026-04-30 12:07 | 21.67795 | 39.17078 | 35 ft | 11 kts | 160° |
| 2026-04-30 12:07 | 21.67721 | 39.17107 | 35 ft | 12 kts | 160° |
| 2026-04-30 12:08 | 21.67646 | 39.17137 | 35 ft | 12 kts | 160° |
| 2026-04-30 12:08 | 21.67573 | 39.17166 | 35 ft | 10 kts | 160° |
| 2026-04-30 12:08 | 21.67521 | 39.17185 | 35 ft | 6 kts | 165° |
| 2026-04-30 12:08 | 21.67485 | 39.17197 | 35 ft | 5 kts | 151° |
| 2026-04-30 12:09 | 21.67457 | 39.17224 | 35 ft | 6 kts | 133° |
| 2026-04-30 12:09 | 21.67435 | 39.17251 | 35 ft | 3 kts | 130° |
| 2026-04-30 12:09 | 21.67426 | 39.17262 | 35 ft | 1 kts | 130° |
| 2026-04-30 12:09 | 21.67420 | 39.17270 | 35 ft | 1 kts | 130° |